Terminal Aerodrome Forecast
Issued by NWS Melbourne, FL

Home | Current Version | Previous Version | Text Only | Print | Product List | Glossary On
Versions: 1 2 3 4 5 6 7 8 9 10 11 12 13 14 15 16 17 18 19 20 21 22 23 24 25 26 27 28 29
000
FTUS42 KMLB 090318 AAA
TAFMCO
TAF AMD
KMCO 090318Z 0903/0924 36009KT P6SM BKN150 OVC200
     FM090800 35013KT P6SM VCSH OVC100
     FM091500 36013KT P6SM OVC150=

USA.gov is the U.S. government's official web portal to all federal, state and local government web resources and services.